sensor_id;sensor_type;location;lat;lon;timestamp;P1;durP1;ratioP1;P2;durP2;ratioP2
58015;SDS011;43809;52.110;20.964;2023-07-31T17:17:13;1.17;;;0.70;;
58015;SDS011;43809;52.110;20.964;2023-07-31T17:19:13;0.82;;;0.57;;
58015;SDS011;43809;52.110;20.964;2023-07-31T17:21:15;1.47;;;0.77;;
58015;SDS011;43809;52.110;20.964;2023-07-31T17:23:17;2.97;;;0.63;;
58015;SDS011;43809;52.110;20.964;2023-07-31T17:25:18;1.40;;;0.50;;
58015;SDS011;43809;52.110;20.964;2023-07-31T17:27:26;1.95;;;0.75;;
58015;SDS011;43809;52.110;20.964;2023-07-31T17:29:28;2.38;;;0.90;;
58015;SDS011;43809;52.110;20.964;2023-07-31T17:31:29;2.95;;;0.80;;
58015;SDS011;43809;52.110;20.964;2023-07-31T17:33:30;1.75;;;0.77;;
58015;SDS011;43809;52.110;20.964;2023-07-31T17:35:30;2.03;;;0.60;;
58015;SDS011;43809;52.110;20.964;2023-07-31T17:37:31;1.50;;;0.70;;
58015;SDS011;43809;52.110;20.964;2023-07-31T17:42:18;2.70;;;1.13;;
58015;SDS011;43809;52.110;20.964;2023-07-31T17:44:21;1.15;;;0.98;;
58015;SDS011;43809;52.110;20.964;2023-07-31T17:46:21;3.33;;;1.25;;
58015;SDS011;43809;52.110;20.964;2023-07-31T17:48:21;3.65;;;1.25;;
58015;SDS011;43809;52.110;20.964;2023-07-31T17:50:25;3.47;;;1.20;;
58015;SDS011;43809;52.110;20.964;2023-07-31T17:52:28;4.68;;;1.80;;
58015;SDS011;43809;52.110;20.964;2023-07-31T17:54:28;5.03;;;1.92;;
58015;SDS011;43809;52.110;20.964;2023-07-31T17:56:28;7.13;;;1.58;;
58015;SDS011;43809;52.110;20.964;2023-07-31T17:58:34;3.78;;;1.38;;
58015;SDS011;43809;52.110;20.964;2023-07-31T18:00:37;1.73;;;1.00;;
58015;SDS011;43809;52.110;20.964;2023-07-31T18:02:52;18.63;;;2.33;;
58015;SDS011;43809;52.110;20.964;2023-07-31T18:07:43;3.13;;;1.40;;
58015;SDS011;43809;52.110;20.964;2023-07-31T18:09:43;3.30;;;1.40;;
58015;SDS011;43809;52.110;20.964;2023-07-31T18:14:09;4.78;;;1.60;;
58015;SDS011;43809;52.110;20.964;2023-07-31T18:16:10;5.33;;;1.30;;
58015;SDS011;43809;52.110;20.964;2023-07-31T18:18:10;3.87;;;1.20;;
58015;SDS011;43809;52.110;20.964;2023-07-31T18:20:17;1.30;;;1.10;;
58015;SDS011;43809;52.110;20.964;2023-07-31T18:22:19;2.45;;;1.00;;
58015;SDS011;43809;52.110;20.964;2023-07-31T18:24:19;1.27;;;0.80;;
58015;SDS011;43809;52.110;20.964;2023-07-31T18:26:19;0.85;;;0.73;;
58015;SDS011;43809;52.110;20.964;2023-07-31T18:28:19;1.60;;;0.77;;
58015;SDS011;43809;52.110;20.964;2023-07-31T18:30:20;2.20;;;1.00;;
58015;SDS011;43809;52.110;20.964;2023-07-31T18:32:20;0.95;;;0.50;;
58015;SDS011;43809;52.110;20.964;2023-07-31T18:34:20;2.20;;;0.80;;
58015;SDS011;43809;52.110;20.964;2023-07-31T18:36:20;1.00;;;0.60;;
58015;SDS011;43809;52.110;20.964;2023-07-31T18:38:21;0.82;;;0.52;;
58015;SDS011;43809;52.110;20.964;2023-07-31T18:42:37;2.85;;;0.70;;
58015;SDS011;43809;52.110;20.964;2023-07-31T18:44:37;3.23;;;0.80;;
58015;SDS011;43809;52.110;20.964;2023-07-31T18:46:37;1.40;;;0.88;;
58015;SDS011;43809;52.110;20.964;2023-07-31T18:48:38;3.28;;;1.00;;
58015;SDS011;43809;52.110;20.964;2023-07-31T18:50:41;1.80;;;0.80;;
58015;SDS011;43809;52.110;20.964;2023-07-31T18:52:44;5.78;;;0.93;;
58015;SDS011;43809;52.110;20.964;2023-07-31T18:54:44;0.90;;;0.60;;
58015;SDS011;43809;52.110;20.964;2023-07-31T19:07:16;2.80;;;0.60;;
58015;SDS011;43809;52.110;20.964;2023-07-31T19:09:26;2.22;;;0.63;;
58015;SDS011;43809;52.110;20.964;2023-07-31T19:11:26;1.42;;;0.60;;
58015;SDS011;43809;52.110;20.964;2023-07-31T19:13:27;4.03;;;1.10;;
58015;SDS011;43809;52.110;20.964;2023-07-31T19:15:27;3.27;;;0.93;;
58015;SDS011;43809;52.110;20.964;2023-07-31T19:17:27;4.80;;;0.82;;
58015;SDS011;43809;52.110;20.964;2023-07-31T19:24:27;3.53;;;1.23;;
58015;SDS011;43809;52.110;20.964;2023-07-31T19:26:28;2.13;;;0.93;;
58015;SDS011;43809;52.110;20.964;2023-07-31T19:28:29;1.60;;;1.00;;
58015;SDS011;43809;52.110;20.964;2023-07-31T19:30:29;1.65;;;1.05;;
58015;SDS011;43809;52.110;20.964;2023-07-31T19:32:29;0.87;;;0.80;;
58015;SDS011;43809;52.110;20.964;2023-07-31T19:34:29;1.43;;;1.00;;
58015;SDS011;43809;52.110;20.964;2023-07-31T19:36:30;2.47;;;1.17;;
58015;SDS011;43809;52.110;20.964;2023-07-31T19:38:30;3.07;;;1.30;;
58015;SDS011;43809;52.110;20.964;2023-07-31T19:40:51;1.77;;;1.00;;
58015;SDS011;43809;52.110;20.964;2023-07-31T19:42:51;1.60;;;0.98;;
58015;SDS011;43809;52.110;20.964;2023-07-31T19:47:07;3.20;;;1.00;;
58015;SDS011;43809;52.110;20.964;2023-07-31T19:49:08;0.65;;;0.57;;
58015;SDS011;43809;52.110;20.964;2023-07-31T19:51:08;1.25;;;0.93;;
58015;SDS011;43809;52.110;20.964;2023-07-31T19:53:08;2.50;;;1.00;;
58015;SDS011;43809;52.110;20.964;2023-07-31T19:55:08;3.23;;;1.50;;
58015;SDS011;43809;52.110;20.964;2023-07-31T19:57:09;6.20;;;1.85;;
58015;SDS011;43809;52.110;20.964;2023-07-31T19:59:09;3.50;;;1.83;;
58015;SDS011;43809;52.110;20.964;2023-07-31T20:01:09;4.88;;;2.00;;
58015;SDS011;43809;52.110;20.964;2023-07-31T20:03:10;5.35;;;2.75;;
58015;SDS011;43809;52.110;20.964;2023-07-31T20:18:44;4.28;;;2.22;;
58015;SDS011;43809;52.110;20.964;2023-07-31T20:20:44;3.20;;;2.50;;
58015;SDS011;43809;52.110;20.964;2023-07-31T20:22:45;2.83;;;2.40;;
58015;SDS011;43809;52.110;20.964;2023-07-31T20:24:48;5.07;;;3.10;;
58015;SDS011;43809;52.110;20.964;2023-07-31T20:29:18;4.10;;;2.83;;
58015;SDS011;43809;52.110;20.964;2023-07-31T20:31:18;4.20;;;3.00;;
58015;SDS011;43809;52.110;20.964;2023-07-31T20:33:18;6.78;;;3.55;;
58015;SDS011;43809;52.110;20.964;2023-07-31T20:35:19;6.65;;;3.78;;
58015;SDS011;43809;52.110;20.964;2023-07-31T20:37:21;5.38;;;3.53;;
58015;SDS011;43809;52.110;20.964;2023-07-31T20:39:21;4.97;;;3.33;;
58015;SDS011;43809;52.110;20.964;2023-07-31T20:41:21;5.77;;;3.23;;
58015;SDS011;43809;52.110;20.964;2023-07-31T20:43:22;8.70;;;3.73;;
58015;SDS011;43809;52.110;20.964;2023-07-31T20:45:22;6.93;;;3.67;;
58015;SDS011;43809;52.110;20.964;2023-07-31T20:47:23;4.90;;;3.50;;
58015;SDS011;43809;52.110;20.964;2023-07-31T20:49:23;4.95;;;2.92;;
58015;SDS011;43809;52.110;20.964;2023-07-31T20:51:23;6.10;;;3.20;;
58015;SDS011;43809;52.110;20.964;2023-07-31T20:53:23;6.25;;;3.20;;
58015;SDS011;43809;52.110;20.964;2023-07-31T20:55:24;5.47;;;3.17;;
58015;SDS011;43809;52.110;20.964;2023-07-31T20:57:24;5.55;;;3.30;;
58015;SDS011;43809;52.110;20.964;2023-07-31T21:01:40;4.25;;;2.80;;
58015;SDS011;43809;52.110;20.964;2023-07-31T21:03:41;4.13;;;2.60;;
58015;SDS011;43809;52.110;20.964;2023-07-31T21:05:48;5.53;;;3.13;;
58015;SDS011;43809;52.110;20.964;2023-07-31T21:10:28;4.30;;;3.03;;
58015;SDS011;43809;52.110;20.964;2023-07-31T21:12:28;5.32;;;3.00;;
58015;SDS011;43809;52.110;20.964;2023-07-31T21:14:29;4.23;;;3.50;;
58015;SDS011;43809;52.110;20.964;2023-07-31T21:16:29;4.07;;;3.25;;
58015;SDS011;43809;52.110;20.964;2023-07-31T21:19:28;5.00;;;3.43;;
58015;SDS011;43809;52.110;20.964;2023-07-31T21:21:29;4.72;;;2.70;;
58015;SDS011;43809;52.110;20.964;2023-07-31T21:23:29;3.85;;;2.60;;
58015;SDS011;43809;52.110;20.964;2023-07-31T21:25:32;4.43;;;2.85;;
58015;SDS011;43809;52.110;20.964;2023-07-31T21:27:33;3.95;;;3.17;;
58015;SDS011;43809;52.110;20.964;2023-07-31T21:29:34;3.30;;;2.45;;
58015;SDS011;43809;52.110;20.964;2023-07-31T21:31:35;3.60;;;2.70;;
58015;SDS011;43809;52.110;20.964;2023-07-31T21:33:35;3.90;;;2.83;;
58015;SDS011;43809;52.110;20.964;2023-07-31T21:35:36;5.05;;;3.00;;
58015;SDS011;43809;52.110;20.964;2023-07-31T21:37:37;3.47;;;2.97;;
58015;SDS011;43809;52.110;20.964;2023-07-31T21:39:41;5.32;;;3.70;;
58015;SDS011;43809;52.110;20.964;2023-07-31T21:41:41;6.32;;;3.47;;
58015;SDS011;43809;52.110;20.964;2023-07-31T21:43:42;4.13;;;3.10;;
58015;SDS011;43809;52.110;20.964;2023-07-31T21:45:57;6.57;;;3.50;;
58015;SDS011;43809;52.110;20.964;2023-07-31T21:47:58;5.30;;;3.15;;
58015;SDS011;43809;52.110;20.964;2023-07-31T21:49:58;4.03;;;2.83;;
58015;SDS011;43809;52.110;20.964;2023-07-31T21:54:24;5.95;;;3.30;;
58015;SDS011;43809;52.110;20.964;2023-07-31T21:56:25;3.58;;;2.80;;
58015;SDS011;43809;52.110;20.964;2023-07-31T21:58:26;4.75;;;2.67;;
58015;SDS011;43809;52.110;20.964;2023-07-31T22:00:26;5.00;;;3.58;;
58015;SDS011;43809;52.110;20.964;2023-07-31T22:02:27;5.07;;;3.50;;
58015;SDS011;43809;52.110;20.964;2023-07-31T22:04:28;3.78;;;3.10;;
58015;SDS011;43809;52.110;20.964;2023-07-31T22:06:28;4.05;;;3.00;;
58015;SDS011;43809;52.110;20.964;2023-07-31T22:08:29;4.50;;;3.22;;
58015;SDS011;43809;52.110;20.964;2023-07-31T22:10:30;16.63;;;4.30;;
58015;SDS011;43809;52.110;20.964;2023-07-31T22:12:30;6.45;;;3.20;;
58015;SDS011;43809;52.110;20.964;2023-07-31T22:14:39;4.32;;;3.15;;
58015;SDS011;43809;52.110;20.964;2023-07-31T22:16:40;5.93;;;3.28;;
58015;SDS011;43809;52.110;20.964;2023-07-31T22:18:40;3.72;;;3.13;;
58015;SDS011;43809;52.110;20.964;2023-07-31T22:20:41;5.20;;;3.08;;
58015;SDS011;43809;52.110;20.964;2023-07-31T22:22:42;5.53;;;3.33;;
58015;SDS011;43809;52.110;20.964;2023-07-31T22:27:26;5.03;;;3.33;;
58015;SDS011;43809;52.110;20.964;2023-07-31T22:29:27;3.50;;;2.83;;
58015;SDS011;43809;52.110;20.964;2023-07-31T22:31:28;7.68;;;3.78;;
58015;SDS011;43809;52.110;20.964;2023-07-31T22:33:28;4.88;;;3.45;;
58015;SDS011;43809;52.110;20.964;2023-07-31T22:35:29;4.88;;;3.58;;
58015;SDS011;43809;52.110;20.964;2023-07-31T22:37:30;5.43;;;3.33;;
58015;SDS011;43809;52.110;20.964;2023-07-31T22:39:31;4.53;;;3.28;;
58015;SDS011;43809;52.110;20.964;2023-07-31T22:41:31;4.43;;;3.30;;
58015;SDS011;43809;52.110;20.964;2023-07-31T22:43:32;5.35;;;3.70;;
58015;SDS011;43809;52.110;20.964;2023-07-31T22:45:33;5.07;;;3.30;;
58015;SDS011;43809;52.110;20.964;2023-07-31T22:47:34;4.60;;;3.30;;
58015;SDS011;43809;52.110;20.964;2023-07-31T22:49:37;5.40;;;3.40;;
58015;SDS011;43809;52.110;20.964;2023-07-31T22:51:38;4.85;;;3.30;;
58015;SDS011;43809;52.110;20.964;2023-07-31T22:53:38;4.28;;;3.20;;
58015;SDS011;43809;52.110;20.964;2023-07-31T22:55:40;4.30;;;3.53;;
58015;SDS011;43809;52.110;20.964;2023-07-31T22:57:40;4.32;;;3.17;;
58015;SDS011;43809;52.110;20.964;2023-07-31T22:59:42;6.40;;;3.50;;
58015;SDS011;43809;52.110;20.964;2023-07-31T23:01:43;6.30;;;3.55;;
58015;SDS011;43809;52.110;20.964;2023-07-31T23:03:43;3.97;;;3.08;;
58015;SDS011;43809;52.110;20.964;2023-07-31T23:05:44;4.45;;;3.20;;
58015;SDS011;43809;52.110;20.964;2023-07-31T23:07:45;5.60;;;3.15;;
58015;SDS011;43809;52.110;20.964;2023-07-31T23:09:46;4.05;;;3.50;;
58015;SDS011;43809;52.110;20.964;2023-07-31T23:11:46;4.72;;;3.38;;
58015;SDS011;43809;52.110;20.964;2023-07-31T23:13:50;4.85;;;3.25;;
58015;SDS011;43809;52.110;20.964;2023-07-31T23:15:50;4.95;;;3.47;;
58015;SDS011;43809;52.110;20.964;2023-07-31T23:17:51;4.78;;;3.00;;
58015;SDS011;43809;52.110;20.964;2023-07-31T23:19:52;4.55;;;3.25;;
58015;SDS011;43809;52.110;20.964;2023-07-31T23:28:18;4.05;;;3.05;;
58015;SDS011;43809;52.110;20.964;2023-07-31T23:30:19;5.22;;;2.90;;
58015;SDS011;43809;52.110;20.964;2023-07-31T23:32:20;3.67;;;3.25;;
58015;SDS011;43809;52.110;20.964;2023-07-31T23:34:21;3.28;;;2.60;;
58015;SDS011;43809;52.110;20.964;2023-07-31T23:36:21;5.85;;;3.35;;
58015;SDS011;43809;52.110;20.964;2023-07-31T23:38:22;4.35;;;3.20;;
58015;SDS011;43809;52.110;20.964;2023-07-31T23:40:24;3.22;;;2.80;;
58015;SDS011;43809;52.110;20.964;2023-07-31T23:42:25;4.47;;;3.53;;
58015;SDS011;43809;52.110;20.964;2023-07-31T23:44:40;6.57;;;3.40;;
58015;SDS011;43809;52.110;20.964;2023-07-31T23:46:41;4.82;;;3.50;;
58015;SDS011;43809;52.110;20.964;2023-07-31T23:48:46;7.03;;;3.53;;
58015;SDS011;43809;52.110;20.964;2023-07-31T23:50:47;4.88;;;2.90;;
58015;SDS011;43809;52.110;20.964;2023-07-31T23:52:47;4.22;;;3.13;;
58015;SDS011;43809;52.110;20.964;2023-07-31T23:54:50;4.80;;;3.23;;
58015;SDS011;43809;52.110;20.964;2023-07-31T23:56:51;5.65;;;3.28;;
58015;SDS011;43809;52.110;20.964;2023-07-31T23:58:52;5.53;;;3.40;;
